EHRD Airport Information

Runway Information
Runway 06 Length 7218 ft width 148 ft
Elevation 0 ft Threshold 656 ft Heading 57
Runway 24 Length 7218 ft Width 148 ft
Elevation 0 ft Threshold 656 ft Heading 237
Airport Frequencies
Type A/D Name SCHIPHOL Frequency 121.2 MHZ
Type APP Name APP Frequency 127.025 MHZ
Type ATIS Name ATIS Frequency 110.4 MHZ
Type GND Name GND Frequency 122.175 MHZ
Type TWR Name TWR Frequency 118.2 MHZ
Airport Navaids
Type NDB Name Rotterdam Frequency 351 KHZ
Type VOR-DME Name Rotterdam Frequency 110400 KHZ
Airport Weather Information & NOTAM
ADDS - METARS form results

(2151 UTC 09 December 2018)
Data provider http://aviationweather.gov/metar/data/
 
METAR text: EHRD 092125Z AUTO 31012KT 280V360 9999 -UP FEW021 SCT042 07/02 Q1015 NOSIG
Conditions at: EHRD (ROTTERDAM AIRPOR, NL) observed 2125 UTC 09 December 2018
Temperature: 7.0°C (45°F)
Dewpoint: 2.0°C (36°F) [RH = 70%]
Pressure (altimeter): 29.97 inches Hg (1015.0 mb)
Winds: from the NW (310 degrees) at 14 MPH (12 knots; 6.2 m/s)
Visibility: 6 or more miles (10+ km)
Ceiling: at least 12,000 feet AGL
Clouds: few clouds at 2100 feet AGL
scattered clouds at 4200 feet AGL
Weather: UP  (unknown precipitation)

METAR text: EHRD 092055Z AUTO 30013KT 270V340 9999 FEW017CB 07/03 Q1014 TEMPO 7000 -SHRA
Conditions at: EHRD (ROTTERDAM AIRPOR, NL) observed 2055 UTC 09 December 2018
Temperature: 7.0°C (45°F)
Dewpoint: 3.0°C (37°F) [RH = 76%]
Pressure (altimeter): 29.94 inches Hg (1014.0 mb)
Winds: from the WNW (300 degrees) at 15 MPH (13 knots; 6.7 m/s)
Visibility: 6 or more miles (10+ km)
Ceiling: at least 12,000 feet AGL
Clouds: few clouds at 1700 feet AGL
Weather: no significant weather observed at this time

Forecast for: EHRD (ROTTERDAM AIRPOR, NL)
Text: TAF EHRD 091702Z 0918/1024 31015KT 9999 SCT020
Forecast period: 1800 UTC 09 December 2018 to 0000 UTC 11 December 2018
Forecast type: FROM: standard forecast or significant change
Winds: from the NW (310 degrees) at 17 MPH (15 knots; 7.7 m/s)
Visibility: 6 or more miles 10+ km)
Ceiling: at least 12,000 feet AGL
Clouds: scattered clouds at 2000 feet AGL
Weather: no significant weather forecast for this period
Text: PROB40
Forecast period: 1800 UTC 09 December 2018 to 1500 UTC 10 December 2018
Forecast type: TEMPORARY: The following changes expected for less than half the time period
Winds: from the NW (310 degrees) at 23 MPH (20 knots; 10.3 m/s)
gusting to 37 MPH (32 knots; 16.5 m/s)
Visibility: 4 miles (7 km)
Ceiling: at least 12,000 feet AGL
Clouds: scattered clouds at 1800 feet AGL
scattered clouds at 3000 feet AGL
Weather: -SHRA  (light rain showers)
Text: TEMPO 0918/1015 31020G32KT 7000 -SHRA SCT018CB SCT030
Forecast period: 1500 UTC 10 December 2018 to 0000 UTC 11 December 2018
Forecast type: TEMPORARY: The following changes expected for less than half the time period
Visibility: 4 miles (7 km)
Ceiling: at least 12,000 feet AGL
Clouds: scattered clouds at 2000 feet AGL
Weather: -SHRA  (light rain showers)